createdAt,value
2022-10-20T00:01:57.491Z,15.70
2022-10-20T00:04:25.283Z,15.43
2022-10-20T00:06:52.998Z,14.73
2022-10-20T00:09:20.937Z,15.50
2022-10-20T00:11:51.643Z,13.63
2022-10-20T00:14:20.885Z,14.73
2022-10-20T00:16:48.594Z,14.25
2022-10-20T00:19:16.295Z,14.52
2022-10-20T00:21:44.016Z,13.80
2022-10-20T00:24:11.804Z,15.10
2022-10-20T00:26:39.513Z,14.40
2022-10-20T00:29:07.310Z,13.70
2022-10-20T00:31:36.401Z,16.20
2022-10-20T00:34:04.136Z,14.07
2022-10-20T00:36:31.887Z,15.00
2022-10-20T00:39:00.301Z,14.40
2022-10-20T00:41:29.047Z,14.65
2022-10-20T00:43:57.816Z,14.65
2022-10-20T00:46:27.921Z,15.30
2022-10-20T00:48:58.300Z,15.80
2022-10-20T00:51:27.513Z,15.60
2022-10-20T00:53:58.331Z,14.75
2022-10-20T00:56:26.143Z,15.55
2022-10-20T00:58:54.010Z,15.20
2022-10-20T01:01:21.826Z,14.35
2022-10-20T01:03:50.925Z,14.87
2022-10-20T01:06:22.178Z,15.10
2022-10-20T01:08:50.132Z,15.00
2022-10-20T01:11:19.643Z,15.02
2022-10-20T01:13:54.133Z,14.52
2022-10-20T01:16:24.792Z,14.90
2022-10-20T01:18:55.304Z,15.30
2022-10-20T01:21:40.764Z,14.98
2022-10-20T01:24:21.977Z,15.13
2022-10-20T01:27:13.935Z,15.20
2022-10-20T01:29:45.083Z,13.63
2022-10-20T01:32:17.758Z,15.60
2022-10-20T01:34:52.911Z,13.70
2022-10-20T01:37:34.485Z,14.95
2022-10-20T01:40:16.579Z,16.05
2022-10-20T01:42:45.011Z,17.80
2022-10-20T01:45:16.187Z,18.42
2022-10-20T01:47:46.431Z,18.77
2022-10-20T01:50:15.444Z,20.25
2022-10-20T01:52:43.199Z,19.35
2022-10-20T01:55:13.147Z,22.67
2022-10-20T01:57:46.263Z,23.92
2022-10-20T02:00:16.108Z,23.73
2022-10-20T02:03:01.839Z,22.67
2022-10-20T02:05:38.006Z,21.85
2022-10-20T02:08:10.482Z,21.25
2022-10-20T02:10:42.840Z,21.02
2022-10-20T02:13:12.372Z,21.50
2022-10-20T02:15:42.848Z,21.35
2022-10-20T02:18:13.743Z,24.13
2022-10-20T02:20:42.896Z,16.83
2022-10-20T02:23:11.536Z,15.93
2022-10-20T02:25:40.515Z,16.23
2022-10-20T02:28:10.042Z,16.65
2022-10-20T02:30:38.617Z,16.23
2022-10-20T02:33:08.905Z,17.20
2022-10-20T02:35:37.019Z,16.70
2022-10-20T02:38:05.238Z,16.38
2022-10-20T02:40:33.059Z,16.60
2022-10-20T02:43:00.758Z,18.58
2022-10-20T02:45:28.520Z,18.95
2022-10-20T02:47:56.206Z,18.50
2022-10-20T02:50:25.366Z,17.73
2022-10-20T02:52:53.044Z,17.25
2022-10-20T02:55:20.899Z,17.90
2022-10-20T02:57:48.670Z,16.75
2022-10-20T03:00:16.518Z,18.37
2022-10-20T03:02:44.280Z,17.92
2022-10-20T03:05:12.044Z,17.17
2022-10-20T03:07:41.166Z,17.05
2022-10-20T03:10:09.638Z,16.42
2022-10-20T03:12:37.366Z,16.30
2022-10-20T03:15:06.652Z,15.40
2022-10-20T03:17:34.756Z,16.48
2022-10-20T03:20:02.722Z,16.50
2022-10-20T03:25:04.898Z,16.70
2022-10-20T03:27:32.629Z,15.70
2022-10-20T03:30:01.178Z,16.98
2022-10-20T03:32:29.170Z,17.02
2022-10-20T03:34:59.917Z,16.25
2022-10-20T03:37:27.736Z,17.63
2022-10-20T03:39:55.501Z,16.67
2022-10-20T03:42:27.057Z,16.73
2022-10-20T03:44:54.788Z,15.95
2022-10-20T03:47:22.501Z,16.60
2022-10-20T03:49:50.207Z,17.92
2022-10-20T03:52:17.917Z,17.80
2022-10-20T03:54:45.675Z,16.75
2022-10-20T03:57:13.436Z,18.20
2022-10-20T03:59:42.555Z,17.85
2022-10-20T04:02:18.376Z,17.75
2022-10-20T04:04:46.211Z,17.00
2022-10-20T04:07:13.909Z,17.52
2022-10-20T04:09:41.672Z,16.00
2022-10-20T04:12:09.371Z,16.60
2022-10-20T04:14:37.088Z,16.07
2022-10-20T04:17:06.535Z,17.40
2022-10-20T04:19:34.316Z,17.75
2022-10-20T04:22:02.057Z,16.25
2022-10-20T04:24:29.827Z,16.13
2022-10-20T04:26:57.790Z,16.05
2022-10-20T04:29:25.662Z,16.65
2022-10-20T04:31:53.475Z,17.42
2022-10-20T04:34:22.736Z,17.58
2022-10-20T04:36:50.483Z,18.15
2022-10-20T04:39:18.242Z,16.30
2022-10-20T04:41:46.023Z,21.40
2022-10-20T04:44:13.782Z,19.50
2022-10-20T04:46:41.527Z,18.73
2022-10-20T04:49:09.357Z,18.77
2022-10-20T04:51:38.433Z,20.67
2022-10-20T04:54:06.502Z,17.73
2022-10-20T04:56:34.255Z,17.83
2022-10-20T04:59:03.095Z,19.40
2022-10-20T05:01:31.048Z,19.70
2022-10-20T05:03:59.066Z,17.52
2022-10-20T05:06:27.798Z,16.95
2022-10-20T05:08:57.994Z,17.00
2022-10-20T05:11:26.731Z,18.43
2022-10-20T05:13:54.560Z,18.45
2022-10-20T05:16:22.637Z,18.10
2022-10-20T05:18:52.198Z,18.77
2022-10-20T05:21:21.067Z,18.25
2022-10-20T05:23:48.912Z,18.92
2022-10-20T05:26:19.271Z,18.23
2022-10-20T05:28:48.001Z,18.17
2022-10-20T05:31:16.146Z,19.60
2022-10-20T05:33:45.550Z,19.20
2022-10-20T05:36:18.142Z,20.73
2022-10-20T05:38:49.247Z,22.67
2022-10-20T05:41:20.706Z,19.75
2022-10-20T05:43:49.395Z,16.35
2022-10-20T05:46:18.132Z,18.30
2022-10-20T05:48:45.911Z,18.02
2022-10-20T05:51:15.290Z,17.87
2022-10-20T05:53:43.620Z,18.65
2022-10-20T05:56:12.758Z,17.98
2022-10-20T05:58:42.558Z,16.80
2022-10-20T06:01:11.059Z,16.70
2022-10-20T06:03:38.989Z,16.07
2022-10-20T06:06:06.972Z,16.70
2022-10-20T06:08:35.621Z,16.55
2022-10-20T06:11:04.618Z,16.10
2022-10-20T06:13:32.642Z,16.20
2022-10-20T06:16:05.718Z,17.58
2022-10-20T06:18:33.766Z,17.73
2022-10-20T06:21:02.210Z,17.60
2022-10-20T06:23:30.040Z,17.05
2022-10-20T06:26:02.934Z,16.70
2022-10-20T06:28:31.559Z,16.73
2022-10-20T06:30:59.236Z,17.20
2022-10-20T06:33:30.704Z,20.17
2022-10-20T06:35:59.917Z,21.70
2022-10-20T06:38:27.693Z,18.17
2022-10-20T06:40:55.478Z,17.45
2022-10-20T06:43:23.319Z,17.38
2022-10-20T06:45:59.118Z,17.02
2022-10-20T06:48:28.645Z,18.33
2022-10-20T06:50:59.831Z,17.58
2022-10-20T06:53:28.468Z,18.52
2022-10-20T06:55:56.691Z,18.02
2022-10-20T06:58:25.563Z,17.05
2022-10-20T07:01:00.819Z,17.58
2022-10-20T07:03:30.823Z,16.52
2022-10-20T07:05:58.968Z,17.10
2022-10-20T07:08:28.761Z,17.10
2022-10-20T07:11:00.503Z,17.60
2022-10-20T07:13:30.247Z,17.37
2022-10-20T07:15:58.420Z,16.98
2022-10-20T07:18:26.715Z,17.88
2022-10-20T07:20:59.074Z,17.80
2022-10-20T07:23:27.106Z,18.05
2022-10-20T07:26:00.880Z,16.67
2022-10-20T07:28:28.685Z,17.47
2022-10-20T07:30:56.434Z,17.75
2022-10-20T07:33:24.242Z,17.83
2022-10-20T07:35:52.061Z,15.80
2022-10-20T07:38:21.168Z,15.93
2022-10-20T07:40:48.997Z,15.88
2022-10-20T07:43:16.784Z,16.67
2022-10-20T07:45:44.649Z,17.40
2022-10-20T07:48:12.515Z,18.17
2022-10-20T07:50:40.768Z,16.90
2022-10-20T07:53:08.785Z,16.77
2022-10-20T07:55:39.189Z,17.27
2022-10-20T07:58:07.408Z,16.73
2022-10-20T08:00:35.350Z,17.40
2022-10-20T08:03:03.267Z,16.95
2022-10-20T08:05:31.008Z,17.20
2022-10-20T08:08:00.555Z,16.17
2022-10-20T08:10:28.270Z,16.33
2022-10-20T08:12:57.506Z,16.70
2022-10-20T08:15:25.240Z,17.30
2022-10-20T08:17:53.384Z,18.17
2022-10-20T08:23:03.940Z,16.00
2022-10-20T08:25:31.667Z,17.15
2022-10-20T08:28:02.102Z,17.98
2022-10-20T08:30:30.169Z,16.83
2022-10-20T08:32:57.872Z,15.77
2022-10-20T08:35:25.654Z,15.40
2022-10-20T08:37:53.563Z,15.68
2022-10-20T08:40:22.709Z,15.68
2022-10-20T08:42:50.806Z,15.35
2022-10-20T08:45:21.202Z,14.95
2022-10-20T08:47:50.422Z,14.45
2022-10-20T08:50:19.464Z,14.95
2022-10-20T08:52:48.441Z,15.77
2022-10-20T08:57:56.786Z,16.38
2022-10-20T09:00:26.909Z,15.80
2022-10-20T09:02:55.603Z,16.40
2022-10-20T09:05:25.077Z,15.73
2022-10-20T09:07:53.190Z,16.00
2022-10-20T09:10:30.973Z,16.88
2022-10-20T09:12:59.570Z,16.33
2022-10-20T09:15:29.359Z,15.52
2022-10-20T09:18:02.068Z,15.73
2022-10-20T09:20:32.877Z,16.00
2022-10-20T09:23:04.167Z,15.63
2022-10-20T09:25:32.285Z,15.73
2022-10-20T09:28:00.020Z,16.83
2022-10-20T09:30:39.568Z,23.10
2022-10-20T09:33:21.494Z,20.52
2022-10-20T09:35:49.822Z,15.90
2022-10-20T09:38:19.275Z,16.05
2022-10-20T09:40:47.686Z,16.50
2022-10-20T09:43:18.142Z,16.70
2022-10-20T09:45:51.672Z,16.25
2022-10-20T09:48:22.762Z,19.27
2022-10-20T09:50:52.117Z,16.73
2022-10-20T09:53:21.043Z,16.50
2022-10-20T09:55:49.549Z,17.20
2022-10-20T09:58:22.062Z,17.38
2022-10-20T10:00:58.406Z,16.77
2022-10-20T10:03:26.681Z,17.10
2022-10-20T10:05:55.179Z,17.77
2022-10-20T10:08:23.771Z,16.30
2022-10-20T10:11:01.846Z,16.50
2022-10-20T10:13:31.197Z,15.60
2022-10-20T10:16:05.432Z,18.85
2022-10-20T10:18:33.822Z,17.27
2022-10-20T10:21:03.180Z,15.65
2022-10-20T10:23:31.744Z,15.73
2022-10-20T10:26:02.181Z,17.15
2022-10-20T10:28:32.740Z,18.48
2022-10-20T10:31:21.558Z,16.30
2022-10-20T10:33:51.831Z,16.65
2022-10-20T10:36:30.820Z,16.92
2022-10-20T10:38:59.283Z,16.13
2022-10-20T10:41:42.205Z,17.67
2022-10-20T10:44:15.391Z,17.10
2022-10-20T10:46:55.817Z,17.13
2022-10-20T10:49:39.266Z,17.33
2022-10-20T10:52:12.364Z,17.77
2022-10-20T10:54:48.765Z,16.43
2022-10-20T10:57:19.352Z,17.38
2022-10-20T10:59:49.311Z,16.88
2022-10-20T11:02:27.956Z,16.92
2022-10-20T11:07:52.450Z,17.40
2022-10-20T11:10:24.582Z,17.58
2022-10-20T11:13:00.294Z,16.83
2022-10-20T11:15:34.396Z,17.20
2022-10-20T11:18:07.088Z,17.55
2022-10-20T11:20:40.479Z,16.02
2022-10-20T11:23:23.102Z,16.70
2022-10-20T11:25:53.491Z,17.48
2022-10-20T11:28:29.303Z,17.33
2022-10-20T11:30:58.374Z,16.73
2022-10-20T11:33:28.192Z,17.30
2022-10-20T11:35:59.993Z,17.52
2022-10-20T11:38:32.226Z,17.70
2022-10-20T11:41:02.161Z,17.27
2022-10-20T11:43:33.175Z,18.30
2022-10-20T11:46:03.003Z,18.52
2022-10-20T11:48:33.440Z,18.45
2022-10-20T11:51:11.966Z,17.65
2022-10-20T11:53:46.371Z,18.25
2022-10-20T11:56:22.936Z,19.20
2022-10-20T11:59:08.563Z,42.55
2022-10-20T12:01:38.633Z,21.55
2022-10-20T12:04:17.156Z,19.80
2022-10-20T12:06:56.505Z,18.77
2022-10-20T12:09:41.534Z,19.02
2022-10-20T12:12:12.375Z,18.95
2022-10-20T12:14:42.931Z,17.80
2022-10-20T12:17:31.607Z,17.92
2022-10-20T12:20:18.133Z,19.15
2022-10-20T12:22:48.303Z,27.27
2022-10-20T12:25:20.400Z,27.85
2022-10-20T12:27:48.281Z,21.73
2022-10-20T12:30:42.962Z,20.35
2022-10-20T12:33:17.436Z,19.00
2022-10-20T12:36:00.011Z,18.17
2022-10-20T12:38:29.933Z,19.53
2022-10-20T12:40:59.073Z,17.58
2022-10-20T12:43:28.666Z,18.38
2022-10-20T12:45:58.593Z,17.87
2022-10-20T12:48:26.824Z,16.73
2022-10-20T12:50:55.125Z,18.42
2022-10-20T12:53:24.422Z,16.10
2022-10-20T12:55:58.142Z,17.73
2022-10-20T12:58:27.923Z,22.05
2022-10-20T13:01:03.761Z,21.63
2022-10-20T13:03:43.094Z,21.73
2022-10-20T13:06:44.129Z,15.82
2022-10-20T13:09:22.125Z,17.65
2022-10-20T13:12:01.771Z,18.23
2022-10-20T13:14:33.046Z,17.65
2022-10-20T13:17:04.814Z,19.10
2022-10-20T13:19:36.224Z,17.35
2022-10-20T13:22:18.876Z,17.33
2022-10-20T13:24:46.671Z,17.25
2022-10-20T13:27:17.531Z,16.97
2022-10-20T13:29:47.850Z,16.38
2022-10-20T13:32:18.567Z,17.23
2022-10-20T13:34:50.258Z,16.20
2022-10-20T13:37:31.347Z,17.27
2022-10-20T13:40:04.193Z,16.80
2022-10-20T13:42:39.506Z,16.48
2022-10-20T13:45:12.751Z,17.55
2022-10-20T13:47:47.122Z,17.02
2022-10-20T13:50:15.991Z,15.15
2022-10-20T13:52:44.939Z,17.00
2022-10-20T13:55:17.022Z,17.05
2022-10-20T13:57:55.121Z,16.80
2022-10-20T14:00:25.076Z,17.23
2022-10-20T14:02:54.921Z,16.98
2022-10-20T14:05:23.384Z,16.90
2022-10-20T14:07:51.680Z,16.17
2022-10-20T14:10:27.190Z,15.65
2022-10-20T14:12:56.893Z,16.42
2022-10-20T14:15:30.326Z,16.00
2022-10-20T14:17:59.641Z,16.92
2022-10-20T14:20:27.529Z,16.38
2022-10-20T14:22:55.848Z,16.97
2022-10-20T14:25:23.754Z,17.33
2022-10-20T14:28:01.044Z,15.98
2022-10-20T14:30:35.350Z,18.02
2022-10-20T14:33:05.464Z,18.80
2022-10-20T14:35:39.289Z,17.17
2022-10-20T14:38:12.506Z,17.67
2022-10-20T14:40:40.314Z,17.77
2022-10-20T14:43:15.670Z,16.70
2022-10-20T14:45:52.965Z,17.00
2022-10-20T14:48:21.442Z,16.23
2022-10-20T14:50:49.295Z,16.05
2022-10-20T14:53:18.427Z,16.27
2022-10-20T14:55:46.184Z,20.42
2022-10-20T14:58:34.377Z,15.73
2022-10-20T15:01:16.342Z,18.08
2022-10-20T15:03:44.540Z,18.00
2022-10-20T15:06:16.897Z,18.35
2022-10-20T15:08:57.854Z,18.10
2022-10-20T15:11:27.244Z,16.93
2022-10-20T15:13:59.058Z,16.53
2022-10-20T15:16:35.779Z,17.63
2022-10-20T15:19:13.434Z,16.37
2022-10-20T15:21:41.662Z,15.82
2022-10-20T15:24:11.039Z,15.85
2022-10-20T15:26:38.908Z,15.95
2022-10-20T15:29:09.247Z,16.98
2022-10-20T15:34:10.213Z,18.80
2022-10-20T15:36:41.969Z,18.27
2022-10-20T15:39:35.601Z,21.00
2022-10-20T15:42:05.436Z,23.17
2022-10-20T15:44:35.018Z,24.65
2022-10-20T15:47:03.067Z,27.30
2022-10-20T15:49:30.810Z,22.88
2022-10-20T15:51:58.594Z,19.70
2022-10-20T15:54:26.376Z,19.00
2022-10-20T15:56:54.259Z,21.50
2022-10-20T15:59:22.072Z,21.15
2022-10-20T16:01:51.229Z,23.35
2022-10-20T16:04:20.184Z,20.65
2022-10-20T16:06:48.166Z,18.92
2022-10-20T16:09:16.453Z,22.98
2022-10-20T16:11:44.775Z,22.60
2022-10-20T16:14:12.896Z,18.73
2022-10-20T16:16:40.682Z,17.00
2022-10-20T16:19:12.618Z,19.10
2022-10-20T16:21:41.322Z,18.95
2022-10-20T16:24:09.241Z,18.83
2022-10-20T16:26:38.493Z,22.90
2022-10-20T16:29:06.320Z,19.95
2022-10-20T16:31:39.514Z,19.45
2022-10-20T16:34:15.353Z,20.55
2022-10-20T16:36:50.237Z,21.92
2022-10-20T16:39:35.382Z,20.42
2022-10-20T16:42:07.074Z,19.65
2022-10-20T16:44:37.207Z,28.23
2022-10-20T16:47:05.055Z,21.67
2022-10-20T16:49:47.192Z,19.80
2022-10-20T16:52:20.340Z,19.17
2022-10-20T16:54:51.198Z,18.10
2022-10-20T16:57:20.290Z,19.13
2022-10-20T16:59:52.504Z,18.38
2022-10-20T17:02:26.148Z,20.08
2022-10-20T17:04:55.357Z,19.23
2022-10-20T17:07:23.155Z,18.93
2022-10-20T17:09:50.990Z,20.35
2022-10-20T17:12:18.734Z,19.92
2022-10-20T17:14:46.516Z,20.25
2022-10-20T17:17:14.252Z,20.90
2022-10-20T17:19:43.270Z,26.50
2022-10-20T17:22:12.395Z,22.20
2022-10-20T17:24:40.156Z,20.70
2022-10-20T17:27:07.862Z,20.38
2022-10-20T17:29:35.838Z,21.58
2022-10-20T17:32:03.643Z,20.33
2022-10-20T17:34:31.396Z,20.58
2022-10-20T17:36:59.141Z,19.95
2022-10-20T17:39:28.522Z,20.35
2022-10-20T17:41:59.636Z,19.90
2022-10-20T17:44:30.576Z,18.85
2022-10-20T17:46:59.335Z,19.75
2022-10-20T17:49:27.999Z,19.40
2022-10-20T17:51:56.360Z,18.70
2022-10-20T17:54:24.093Z,19.20
2022-10-20T17:56:55.787Z,18.83
2022-10-20T17:59:23.557Z,19.70
2022-10-20T18:01:51.377Z,20.63
2022-10-20T18:04:19.479Z,21.45
2022-10-20T18:06:47.224Z,20.58
2022-10-20T18:09:15.687Z,20.37
2022-10-20T18:11:44.563Z,21.25
2022-10-20T18:14:13.774Z,20.13
2022-10-20T18:16:42.114Z,22.58
2022-10-20T18:19:14.017Z,22.63
2022-10-20T18:21:41.937Z,21.50
2022-10-20T18:24:12.298Z,21.63
2022-10-20T18:26:40.299Z,21.48
2022-10-20T18:29:09.249Z,21.00
2022-10-20T18:31:39.635Z,19.98
2022-10-20T18:34:07.910Z,18.60
2022-10-20T18:36:38.034Z,16.80
2022-10-20T18:39:08.791Z,23.60
2022-10-20T18:41:38.215Z,22.17
2022-10-20T18:44:11.286Z,20.00
2022-10-20T18:46:41.168Z,18.33
2022-10-20T18:49:09.533Z,16.98
2022-10-20T18:51:37.743Z,17.83
2022-10-20T18:54:06.115Z,17.90
2022-10-20T18:56:33.834Z,17.70
2022-10-20T18:59:02.691Z,16.88
2022-10-20T19:01:31.510Z,17.93
2022-10-20T19:04:01.054Z,18.15
2022-10-20T19:06:29.693Z,20.13
2022-10-20T19:08:58.362Z,19.70
2022-10-20T19:11:27.392Z,18.93
2022-10-20T19:13:55.221Z,18.70
2022-10-20T19:16:23.940Z,17.77
2022-10-20T19:18:52.440Z,18.33
2022-10-20T19:21:21.997Z,17.08
2022-10-20T19:23:51.297Z,17.65
2022-10-20T19:26:20.298Z,18.40
2022-10-20T19:28:49.407Z,16.55
2022-10-20T19:31:21.211Z,18.27
2022-10-20T19:33:50.651Z,17.20
2022-10-20T19:36:19.926Z,18.33
2022-10-20T19:38:49.550Z,17.40
2022-10-20T19:41:20.501Z,18.15
2022-10-20T19:43:48.352Z,19.50
2022-10-20T19:46:17.102Z,18.33
2022-10-20T19:48:44.978Z,19.40
2022-10-20T19:51:12.947Z,20.00
2022-10-20T19:53:40.903Z,20.25
2022-10-20T19:56:10.524Z,19.03
2022-10-20T19:58:41.355Z,19.60
2022-10-20T20:01:12.020Z,20.35
2022-10-20T20:03:42.581Z,19.92
2022-10-20T20:06:16.230Z,20.65
2022-10-20T20:08:45.004Z,20.00
2022-10-20T20:11:23.465Z,16.92
2022-10-20T20:13:51.475Z,18.37
2022-10-20T20:16:19.482Z,22.02
2022-10-20T20:18:47.548Z,18.70
2022-10-20T20:21:15.396Z,20.05
2022-10-20T20:24:00.163Z,19.77
2022-10-20T20:26:30.739Z,20.25
2022-10-20T20:28:58.537Z,17.77
2022-10-20T20:31:26.641Z,16.42
2022-10-20T20:33:54.839Z,18.33
2022-10-20T20:36:22.648Z,18.08
2022-10-20T20:38:52.606Z,18.08
2022-10-20T20:41:24.563Z,18.83
2022-10-20T20:43:53.777Z,19.13
2022-10-20T20:46:23.074Z,21.67
2022-10-20T20:49:48.556Z,19.85
2022-10-20T20:52:16.367Z,18.48
2022-10-20T20:54:44.131Z,18.80
2022-10-20T20:57:11.995Z,17.10
2022-10-20T20:59:39.694Z,18.08
2022-10-20T21:02:07.731Z,18.70
2022-10-20T21:04:35.557Z,17.90
2022-10-20T21:07:04.877Z,18.75
2022-10-20T21:09:32.859Z,18.10
2022-10-20T21:12:00.759Z,18.35
2022-10-20T21:14:28.561Z,17.90
2022-10-20T21:16:56.332Z,18.40
2022-10-20T21:19:24.010Z,19.30
2022-10-20T21:21:57.259Z,18.65
2022-10-20T21:24:26.729Z,24.35
2022-10-20T21:26:54.573Z,25.10
2022-10-20T21:29:22.651Z,20.52
2022-10-20T21:31:52.161Z,18.42
2022-10-20T21:34:19.954Z,17.90
2022-10-20T21:36:47.696Z,19.25
2022-10-20T21:39:16.639Z,17.17
2022-10-20T21:41:46.185Z,17.40
2022-10-20T21:44:14.511Z,18.13
2022-10-20T21:46:47.406Z,17.90
2022-10-20T21:49:17.041Z,18.90
2022-10-20T21:51:45.374Z,18.50
2022-10-20T21:54:14.462Z,18.17
2022-10-20T21:56:44.293Z,17.10
2022-10-20T21:59:15.891Z,17.53
2022-10-20T22:01:43.670Z,17.55
2022-10-20T22:04:11.526Z,17.00
2022-10-20T22:06:39.552Z,16.75
2022-10-20T22:09:08.470Z,17.75
2022-10-20T22:11:37.403Z,17.00
2022-10-20T22:14:05.984Z,16.30
2022-10-20T22:16:37.077Z,16.48
2022-10-20T22:19:06.351Z,15.80
2022-10-20T22:21:37.691Z,16.60
2022-10-20T22:24:05.773Z,16.13
2022-10-20T22:26:34.551Z,15.57
2022-10-20T22:29:02.798Z,15.73
2022-10-20T22:31:31.003Z,17.70
2022-10-20T22:34:00.744Z,16.73
2022-10-20T22:36:29.125Z,16.25
2022-10-20T22:38:57.380Z,16.23
2022-10-20T22:41:25.487Z,15.90
2022-10-20T22:43:53.488Z,17.15
2022-10-20T22:46:21.671Z,15.32
2022-10-20T22:48:49.739Z,15.60
2022-10-20T22:51:19.160Z,15.40
2022-10-20T22:53:47.233Z,15.60
2022-10-20T22:56:16.068Z,16.42
2022-10-20T22:58:44.759Z,14.30
2022-10-20T23:01:14.109Z,14.60
2022-10-20T23:03:42.151Z,14.55
2022-10-20T23:06:13.162Z,14.60
2022-10-20T23:08:43.785Z,18.03
2022-10-20T23:11:12.259Z,15.32
2022-10-20T23:13:40.192Z,15.00
2022-10-20T23:16:08.456Z,15.57
2022-10-20T23:18:36.473Z,14.90
2022-10-20T23:21:04.736Z,15.63
2022-10-20T23:23:33.410Z,15.35
2022-10-20T23:26:04.708Z,15.82
2022-10-20T23:28:33.202Z,15.05
2022-10-20T23:31:08.061Z,15.40
2022-10-20T23:33:36.444Z,15.02
2022-10-20T23:36:04.555Z,15.17
2022-10-20T23:38:32.676Z,16.10
2022-10-20T23:41:02.020Z,14.93
2022-10-20T23:43:30.130Z,15.53
2022-10-20T23:45:57.981Z,15.40
2022-10-20T23:48:25.834Z,15.88
2022-10-20T23:50:53.564Z,15.15
2022-10-20T23:53:21.271Z,15.38
2022-10-20T23:55:48.988Z,16.20
2022-10-20T23:58:21.047Z,15.25
